Latest Weather Observations for Mount Read

IDT60801

Issued at 6:32 pm EST Sunday 24 July 2016 (issued every 30 minutes, with the page automatically refreshed every 10 minutes)

About weather observations | Map of weather stations | Latest weather observations for TAS | Other Formats
Station Details ID: 097085 Name: MOUNT READ Lat: -41.84 Lon: 145.54 Height: 1119.5 m
Data from the previous 72 hours. | See also: Recent months at Mount Read
Date/Time
EST
Temp
°C
App
Temp
°C
Dew
Point
°C
Rel
Hum
%
Delta-T
°C
Wind Press
QNH
hPa
Press
MSL
hPa
Rain since
9am
mm
Dir  Spd
km/h
Gust
km/h
Spd
kts
Gust
kts
24/06:30pm - - - - - CALM 0 0 0 0 999.3 1001.1 5.6
24/06:00pm - - - - - N 2 6 1 3 999.3 1001.1 5.6
24/05:30pm - - - - - N 11 15 6 8 999.3 1001.1 5.4
24/05:00pm - - - - - N 13 15 7 8 999.3 1001.1 5.4
24/04:30pm - - - - - N 13 17 7 9 999.5 1001.3 5.4
24/04:00pm - - - - - N 11 13 6 7 999.5 1001.3 5.4
24/03:30pm - - - - - N 9 13 5 7 999.7 1001.6 5.0
24/03:00pm - - - - - N 7 11 4 6 999.8 1001.7 4.6
24/02:30pm - - - - - N 9 15 5 8 1000.1 1001.9 4.4
24/02:00pm - - - - - WSW 11 15 6 8 1000.1 1001.9 3.6
24/01:30pm - - - - - WSW 9 15 5 8 1000.4 1002.2 3.2
24/01:00pm - - - - - WSW 11 15 6 8 1000.8 1002.7 2.6
24/12:30pm - - - - - WSW 9 13 5 7 1000.9 1002.8 2.0
24/12:00pm - - - - - WSW 7 9 4 5 1001.5 1003.4 1.2
24/11:30am - - - - - WSW 7 9 4 5 1001.8 1003.7 0.0
24/11:00am - - - - - WSW 7 9 4 5 1002.3 1004.2 0.0
24/10:30am - - - - - WSW 6 6 3 3 1002.4 1004.3 0.0
24/10:00am - - - - - WSW 4 6 2 3 1002.4 1004.3 0.0
24/09:30am - - - - - WSW 9 11 5 6 1002.5 1004.4 0.0
24/09:00am - - - - - WSW 4 6 2 3 1002.5 1004.4 0.0
24/08:30am - - - - - WSW 9 13 5 7 1002.5 1004.4 0.0
24/08:00am - - - - - WSW 7 11 4 6 1002.5 1004.4 0.0
24/07:30am - - - - - WSW 11 13 6 7 1002.4 1004.3 0.0
24/07:00am - - - - - WSW 7 11 4 6 1002.4 1004.3 0.0
24/06:30am - - - - - WSW 15 17 8 9 1002.3 1004.2 0.0
24/06:00am - - - - - WSW 11 17 6 9 1002.3 1004.2 0.0
24/05:30am - - - - - WSW 9 11 5 6 1002.2 1004.1 0.0
24/05:00am - - - - - WSW 9 17 5 9 1002.2 1004.1 0.0
24/04:30am - - - - - WSW 15 19 8 10 1002.2 1004.1 0.0
24/04:00am - - - - - WSW 17 22 9 12 1001.9 1003.9 0.0
24/03:30am - - - - - WSW 19 24 10 13 1002.3 1004.2 0.0
24/03:00am - - - - - WSW 9 17 5 9 1002.4 1004.3 0.0
24/02:30am - - - - - WSW 13 19 7 10 1002.5 1004.4 0.0
24/02:00am - - - - - WSW 15 22 8 12 1002.6 1004.5 0.0
24/01:30am - - - - - WSW 20 26 11 14 1002.3 1004.2 0.0
24/01:00am - - - - - WSW 22 26 12 14 1002.4 1004.3 0.0
24/12:30am - - - - - WSW 15 20 8 11 1002.7 1004.7 0.0
24/12:00am - - - - - WSW 17 20 9 11 1002.5 1004.4 0.0
 
Date/Time
EST
Temp
°C
App
Temp
°C
Dew
Point
°C
Rel
Hum
%
Delta-T
°C
Wind Press
QNH
hPa
Press
MSL
hPa
Rain since
9am
mm
Dir  Spd
km/h
Gust
km/h
Spd
kts
Gust
kts
23/11:30pm - - - - - WSW 19 24 10 13 1002.5 1004.4 0.0
23/11:00pm - - - - - WSW 17 20 9 11 1002.3 1004.2 0.0
23/10:30pm - - - - - SW 20 22 11 12 1001.9 1003.9 0.0
23/10:00pm - - - - - SW 15 19 8 10 1001.9 1003.9 0.0
23/09:30pm - - - - - SW 22 28 12 15 1001.3 1003.2 0.0
23/09:00pm - - - - - SW 20 26 11 14 1001.1 1002.9 0.0
23/08:30pm - - - - - SW 24 33 13 18 1000.3 1002.1 0.0
23/08:00pm - - - - - SW 28 37 15 20 999.6 1001.4 0.0
23/07:30pm - - - - - SW 26 33 14 18 999.2 1001.0 0.0
23/07:00pm - - - - - SW 33 41 18 22 998.3 1000.1 0.0
23/06:30pm - - - - - SW 30 39 16 21 997.6 999.4 0.0
23/06:00pm - - - - - SW 32 41 17 22 996.6 998.3 0.0
23/05:30pm - - - - - SSW 30 39 16 21 995.9 997.7 0.0
23/05:00pm - - - - - SW 35 44 19 24 994.9 996.6 0.0
23/04:30pm - - - - - SW 28 43 15 23 994.9 996.6 0.0
23/04:00pm - - - - - SW 33 44 18 24 994.1 995.8 0.0
23/03:30pm - - - - - SSW 43 57 23 31 992.5 994.1 0.0
23/03:00pm - - - - - SW 39 50 21 27 991.7 993.3 0.0
23/02:30pm - - - - - SW 33 43 18 23 990.5 992.0 0.0
23/02:00pm - - - - - SW 24 32 13 17 990.0 991.6 0.0
23/01:59pm - - - - - SW 22 32 12 17 990.0 991.6 0.0
23/01:30pm - - - - - W 39 59 21 32 989.2 990.8 0.0
23/01:23pm - - - - - W 35 59 19 32 988.6 990.1 0.0
23/01:00pm - - - - - WSW 30 43 16 23 989.1 990.7 0.0
23/12:41pm - - - - - W 33 54 18 29 989.1 990.7 0.0
23/12:30pm - - - - - W 33 50 18 27 989.3 990.9 0.0
23/12:00pm - - - - - SW 35 48 19 26 989.3 990.9 0.0
23/11:30am - - - - - WSW 32 44 17 24 989.5 991.0 0.0
23/11:16am - - - - - WSW 9 50 5 27 988.9 990.4 0.0
23/11:00am - - - - - CALM 0 0 0 0 989.1 990.7 0.0
23/10:30am - - - - - CALM 0 0 0 0 988.7 990.2 0.0
23/10:00am - - - - - CALM 0 0 0 0 987.9 989.4 0.0
23/09:30am - - - - - CALM 0 0 0 0 987.8 989.3 0.0
23/09:00am - - - - - CALM 0 0 0 0 986.6 988.0 12.4
23/08:30am - - - - - CALM 0 0 0 0 986.4 987.9 12.4
23/08:00am - - - - - CALM 0 0 0 0 986.0 987.5 12.4
23/07:30am - - - - - CALM 0 0 0 0 985.2 986.7 12.4
23/07:00am - - - - - CALM 0 0 0 0 985.4 986.9 12.4
23/06:30am - - - - - CALM 0 0 0 0 984.5 986.0 12.4
23/06:00am - - - - - CALM 0 0 0 0 984.3 985.7 12.4
23/05:30am - - - - - CALM 0 0 0 0 984.1 985.5 12.4
23/05:00am - - - - - CALM 0 0 0 0 983.7 985.0 12.4
23/04:30am - - - - - CALM 0 0 0 0 983.2 984.6 12.4
23/04:00am - - - - - CALM 0 0 0 0 982.6 984.0 12.4
23/03:30am - - - - - CALM 0 0 0 0 983.0 984.4 12.4
23/03:00am - - - - - CALM 0 0 0 0 983.3 984.7 12.4
23/02:30am - - - - - CALM 0 0 0 0 983.3 984.7 12.4
23/02:00am - - - - - CALM 0 0 0 0 983.5 984.9 12.4
23/01:30am - - - - - CALM 0 0 0 0 983.7 985.0 12.4
23/01:00am - - - - - CALM 0 0 0 0 984.2 985.6 12.4
23/12:30am - - - - - CALM 0 0 0 0 984.3 985.7 12.4
23/12:00am - - - - - CALM 0 0 0 0 984.8 986.2 12.4
 
Date/Time
EST
Temp
°C
App
Temp
°C
Dew
Point
°C
Rel
Hum
%
Delta-T
°C
Wind Press
QNH
hPa
Press
MSL
hPa
Rain since
9am
mm
Dir  Spd
km/h
Gust
km/h
Spd
kts
Gust
kts
22/11:30pm - - - - - CALM 0 0 0 0 985.3 986.8 12.4
22/11:00pm - - - - - CALM 0 0 0 0 985.2 986.7 12.4
22/10:30pm - - - - - CALM 0 0 0 0 985.1 986.5 12.4
22/10:00pm - - - - - WNW 22 32 12 17 985.7 987.1 12.4
22/09:30pm - - - - - W 28 35 15 19 985.8 987.2 12.4
22/09:00pm - - - - - W 19 33 10 18 986.1 987.6 12.4
22/08:30pm - - - - - WSW 30 39 16 21 986.1 987.6 12.4
22/08:00pm - - - - - W 22 32 12 17 986.4 987.9 12.4
22/07:53pm - - - - - WSW 28 46 15 25 986.4 987.9 12.4
22/07:30pm - - - - - WSW 35 46 19 25 986.2 987.7 12.4
22/07:09pm - - - - - WSW 39 57 21 31 986.2 987.7 12.4
22/07:00pm - - - - - SW 48 65 26 35 985.9 987.3 12.4
22/06:30pm - - - - - WSW 44 65 24 35 985.5 987.0 12.4
22/06:03pm - - - - - WSW 48 70 26 38 985.1 986.5 12.4
22/06:00pm - - - - - WSW 48 61 26 33 985.2 986.7 12.4
22/05:36pm - - - - - WSW 44 65 24 35 984.9 986.3 12.0
22/05:30pm - - - - - WSW 44 63 24 34 985.0 986.4 11.8
22/05:03pm - - - - - W 48 69 26 37 984.2 985.6 11.4
22/05:00pm - - - - - W 46 63 25 34 984.4 985.9 11.4
22/04:30pm - - - - - WNW 56 78 30 42 983.8 985.2 10.8
22/04:22pm - - - - - WNW 57 85 31 46 983.8 985.2 10.8
22/04:10pm - - - - - WNW 56 91 30 49 983.3 984.7 10.6
22/04:00pm - - - - - WNW 46 72 25 39 983.3 984.7 10.4
22/03:30pm - - - - - WNW 59 95 32 51 983.0 984.4 10.2
22/03:20pm - - - - - WNW 52 102 28 55 981.9 983.2 9.8
22/03:00pm - - - - - WNW 52 80 28 43 982.8 984.1 9.8
22/02:55pm - - - - - WNW 50 80 27 43 982.6 984.0 9.8
22/02:38pm - - - - - W 44 82 24 44 982.8 984.1 9.4
22/02:37pm - - - - - W 46 82 25 44 982.9 984.2 9.2
22/02:30pm - - - - - W 57 82 31 44 982.4 983.8 8.8
22/02:00pm - - - - - W 50 78 27 42 982.0 983.3 8.4
22/01:54pm - - - - - WNW 50 76 27 41 982.6 984.0 8.4
22/01:30pm - - - - - WNW 63 107 34 58 982.2 983.6 8.0
22/01:20pm - - - - - WNW 57 102 31 55 981.2 982.5 6.0
22/01:17pm - - - - - WNW 57 93 31 50 981.9 983.2 6.0
22/01:02pm - - - - - NW 63 115 34 62 981.4 982.8 6.0
22/01:00pm - - - - - NW 59 106 32 57 981.9 983.2 6.0
22/12:57pm - - - - - NW 57 102 31 55 981.2 982.5 6.0
22/12:45pm - - - - - NW 52 91 28 49 981.8 983.1 6.0
22/12:42pm - - - - - NW 52 91 28 49 982.1 983.4 6.0
22/12:39pm - - - - - NW 48 91 26 49 981.5 982.9 6.0
22/12:30pm - - - - - NW 44 95 24 51 982.0 983.3 5.8
22/12:20pm - - - - - NNW 63 106 34 57 981.9 983.2 5.6
22/12:10pm - - - - - NNW 61 115 33 62 981.0 982.3 5.0
22/12:00pm - - - - - NNW 54 95 29 51 981.2 982.5 4.6
22/11:30am - - - - - NNW 50 76 27 41 983.2 984.6 4.0
22/11:16am - - - - - NNW 46 91 25 49 983.1 984.5 2.8
22/11:00am - - - - - NNW 48 72 26 39 983.7 985.0 1.4
22/10:30am - - - - - NNW 37 59 20 32 985.1 986.5 0.4
22/10:00am - - - - - NNW 50 72 27 39 985.7 987.1 0.4
22/09:30am - - - - - NW 41 67 22 36 986.6 988.0 0.2
22/09:00am - - - - - NNW 52 80 28 43 986.4 987.9 37.8
22/08:59am - - - - - NNW 50 76 27 41 986.4 987.9 37.8
22/08:34am - - - - - NW 28 54 15 29 987.7 989.2 37.6
22/08:30am - - - - - NW 26 54 14 29 987.6 989.1 37.6
22/08:00am - - - - - NW 35 76 19 41 987.7 989.2 37.0
22/07:57am - - - - - NW 28 76 15 41 987.6 989.1 37.0
22/07:56am - - - - - NW 26 54 14 29 988.1 989.6 37.0
22/07:50am - - - - - NW 26 67 14 36 988.1 989.6 36.8
22/07:30am - - - - - NW 50 89 27 48 987.9 989.4 36.8
22/07:03am - - - - - NW 37 82 20 44 987.9 989.4 36.8
22/07:01am - - - - - NW 39 76 21 41 988.1 989.6 36.8
22/07:00am - - - - - NW 41 76 22 41 988.2 989.7 36.8
22/06:59am - - - - - NW 41 76 22 41 988.2 989.7 36.8
22/06:30am - - - - - NW 41 89 22 48 988.1 989.6 36.6
22/06:12am - - - - - NW 48 109 26 59 987.4 988.9 36.4
22/06:10am - - - - - NW 48 102 26 55 987.8 989.3 36.4
22/06:01am - - - - - NW 44 91 24 49 987.7 989.2 36.4
22/06:00am - - - - - NW 46 91 25 49 987.4 988.9 36.4
22/05:55am - - - - - NW 48 102 26 55 987.7 989.2 36.4
22/05:54am - - - - - NW 46 102 25 55 987.7 989.2 36.4
22/05:47am - - - - - NW 48 102 26 55 987.3 988.8 36.4
22/05:45am - - - - - NW 44 96 24 52 987.9 989.4 36.2
22/05:42am - - - - - NW 48 96 26 52 987.6 989.1 36.2
22/05:30am - - - - - NNW 54 109 29 59 987.4 988.9 35.8
22/05:29am - - - - - NNW 56 109 30 59 987.0 988.5 35.8
22/05:23am - - - - - NNW 65 109 35 59 986.6 988.0 35.2
22/05:00am - - - - - NNW 57 83 31 45 987.1 988.6 33.4
22/04:50am - - - - - NNW 54 100 29 54 986.9 988.4 33.2
22/04:40am - - - - - NNW 67 111 36 60 987.6 989.1 32.8
22/04:30am - - - - - NNW 69 109 37 59 987.4 988.9 32.6
22/04:12am - - - - - NNW 54 95 29 51 988.8 990.3 32.0
22/04:00am - - - - - NNW 48 74 26 40 989.3 990.9 29.0
22/03:30am - - - - - NNW 48 72 26 39 990.0 991.6 23.8
22/03:00am - - - - - N 56 83 30 45 990.6 992.2 23.0
22/02:30am - - - - - N 50 74 27 40 991.9 993.5 22.0
22/02:00am - - - - - N 46 65 25 35 993.2 994.9 19.8
22/01:30am - - - - - N 50 72 27 39 995.3 997.0 17.0
22/01:00am - - - - - N 52 72 28 39 995.6 997.3 13.0
22/12:30am - - - - - N 50 69 27 37 996.5 998.2 11.2
22/12:07am - - - - - N 46 65 25 35 997.7 999.5 8.2
22/12:00am - - - - - N 50 65 27 35 997.8 999.6 7.4
 
Date/Time
EST
Temp
°C
App
Temp
°C
Dew
Point
°C
Rel
Hum
%
Delta-T
°C
Wind Press
QNH
hPa
Press
MSL
hPa
Rain since
9am
mm
Dir  Spd
km/h
Gust
km/h
Spd
kts
Gust
kts
21/11:30pm - - - - - N 48 70 26 38 998.5 1000.3 5.4
21/11:27pm - - - - - N 46 67 25 36 998.4 1000.2 5.4
21/11:00pm - - - - - N 37 54 20 29 999.8 1001.7 4.2
21/10:41pm - - - - - N 39 59 21 32 1000.6 1002.5 3.6
21/10:30pm - - - - - N 37 48 20 26 1000.9 1002.8 3.4
21/10:00pm - - - - - N 33 46 18 25 1002.2 1004.1 3.2
21/09:30pm - - - - - N 33 43 18 23 1002.5 1004.4 3.2
21/09:00pm - - - - - N 32 43 17 23 1002.6 1004.5 3.2
21/08:30pm - - - - - N 35 50 19 27 1003.2 1005.1 3.2
21/08:00pm - - - - - N 35 46 19 25 1003.4 1005.3 3.0
21/07:30pm - - - - - N 32 41 17 22 1003.5 1005.5 3.0
21/07:00pm - - - - - N 30 43 16 23 1004.6 1006.6 3.0

Other Formats:

Comma delimited format used in spreadsheet applications
http://www.bom.gov.au/fwo/IDT60801/IDT60801.95952.axf

JavaScript Object Notation format (JSON) in row-major order
http://www.bom.gov.au/fwo/IDT60801/IDT60801.95952.json